Time;durP1;ratioP1;P1;durP2;ratioP2;P2;SDS_P1;SDS_P2;PMS_P1;PMS_P2;Temp;Humidity;BMP_temperature;BMP_pressure;BME280_temperature;BME280_humidity;BME280_pressure;Samples;Min_cycle;Max_cycle;Signal;HPM_P1;HPM_P2
2023/11/25 00:01:55;;;;;;;24.92;9.93;;;;;;;-4.83;67.60;96850.78;5014299;28;20113;-68
2023/11/25 00:04:21;;;;;;;22.83;9.93;;;;;;;-4.88;67.57;96839.78;5009989;28;20041;-70
2023/11/25 00:06:54;;;;;;;25.27;10.63;;;;;;;-4.79;67.85;96857.56;4995875;28;20480;-68
2023/11/25 00:09:21;;;;;;;27.30;10.52;;;;;;;-4.90;67.49;96854.97;4994484;28;20127;-69
2023/11/25 00:11:48;;;;;;;25.30;10.70;;;;;;;-5.20;67.40;96808.34;5010168;28;20046;-70
2023/11/25 00:14:14;;;;;;;27.52;11.05;;;;;;;-5.17;68.17;96810.84;5005340;28;20042;-68
2023/11/25 00:16:52;;;;;;;25.67;11.35;;;;;;;-4.72;68.42;96860.97;4995374;28;20378;-67
2023/11/25 00:19:18;;;;;;;32.42;11.20;;;;;;;-4.85;67.57;96842.31;5009981;28;20562;-67
2023/11/25 00:21:46;;;;;;;22.90;10.45;;;;;;;-4.78;67.65;96858.44;5023933;28;20053;-69
2023/11/25 00:24:17;;;;;;;23.33;10.23;;;;;;;-4.92;67.42;96846.50;5026229;28;20048;-69
2023/11/25 00:26:44;;;;;;;24.77;10.98;;;;;;;-5.18;67.26;96826.91;5021516;28;20044;-68
2023/11/25 00:29:11;;;;;;;27.02;9.98;;;;;;;-5.08;68.19;96824.44;5035232;28;20496;-70
2023/11/25 00:31:37;;;;;;;24.40;10.90;;;;;;;-4.80;67.69;96855.03;4987580;28;20049;-69
2023/11/25 00:34:07;;;;;;;22.55;11.13;;;;;;;-5.09;67.92;96810.94;5010613;28;20064;-69
2023/11/25 00:36:33;;;;;;;25.50;11.35;;;;;;;-4.79;68.15;96864.34;5038792;28;21333;-69
2023/11/25 00:38:59;;;;;;;23.67;11.18;;;;;;;-4.96;67.87;96847.31;5026722;28;20049;-69
2023/11/25 00:41:25;;;;;;;28.17;10.57;;;;;;;-5.19;68.57;96801.56;5008192;28;20038;-71
2023/11/25 00:43:52;;;;;;;21.83;10.27;;;;;;;-5.10;67.80;96846.41;5006075;28;20042;-70
2023/11/25 00:46:17;;;;;;;22.90;10.75;;;;;;;-4.90;68.92;96846.53;5010309;28;20091;-70
2023/11/25 00:48:44;;;;;;;25.48;10.60;;;;;;;-4.91;67.77;96827.91;5004144;28;20042;-69
2023/11/25 00:51:13;;;;;;;24.98;10.27;;;;;;;-4.57;68.45;96868.69;4990808;28;20062;-70
2023/11/25 00:53:41;;;;;;;24.58;10.95;;;;;;;-4.95;68.79;96808.44;5009922;28;20042;-75
2023/11/25 01:20:34;;;;;;;19.88;9.45;;;;;;;-4.68;68.62;96862.69;5048254;28;20543;-69
2023/11/25 01:41:45;;;;;;;21.65;9.23;;;;;;;-4.12;68.99;96889.13;5048842;28;20631;-68
2023/11/25 01:44:14;;;;;;;17.50;9.27;;;;;;;-4.53;68.28;96854.31;5052334;28;20051;-69
2023/11/25 01:46:43;;;;;;;24.33;9.70;;;;;;;-4.52;68.41;96873.78;5055425;28;20567;-70
2023/11/25 01:49:12;;;;;;;20.98;9.95;;;;;;;-4.18;68.97;96891.66;5041078;28;20146;-69
2023/11/25 01:51:45;;;;;;;19.98;9.98;;;;;;;-4.07;67.88;96901.00;5051385;28;20773;-69
2023/11/25 01:54:16;;;;;;;27.42;11.02;;;;;;;-4.16;66.90;96886.59;5038625;28;20037;-69
2023/11/25 01:56:44;;;;;;;25.80;9.85;;;;;;;-4.48;67.92;96857.72;5019422;28;20045;-69
2023/11/25 01:59:12;;;;;;;19.38;9.23;;;;;;;-4.45;67.40;96895.81;5051461;28;20047;-69
2023/11/25 02:01:39;;;;;;;26.42;11.25;;;;;;;-4.30;69.07;96892.47;5033059;28;20052;-69
2023/11/25 02:04:05;;;;;;;27.70;12.77;;;;;;;-4.13;68.88;96879.81;5026770;28;20587;-69
2023/11/25 02:06:36;;;;;;;28.05;11.77;;;;;;;-4.05;68.13;96879.84;4996507;28;20491;-69
2023/11/25 02:09:05;;;;;;;23.75;10.82;;;;;;;-4.07;67.93;96868.00;5022415;28;20065;-69
2023/11/25 02:11:55;;;;;;;23.00;11.43;;;;;;;-3.90;68.49;96906.16;5012331;28;20104;-69
2023/11/25 02:14:22;;;;;;;21.10;9.95;;;;;;;-3.86;67.84;96903.59;5030060;28;20452;-68
2023/11/25 02:16:48;;;;;;;22.60;10.77;;;;;;;-3.70;68.75;96904.50;4988833;28;20034;-69
2023/11/25 02:19:15;;;;;;;22.23;10.52;;;;;;;-3.68;68.52;96887.53;5010127;28;20132;-69
2023/11/25 02:21:47;;;;;;;22.70;10.30;;;;;;;-3.73;67.15;96913.78;5002781;28;20026;-70
2023/11/25 02:24:16;;;;;;;20.45;9.75;;;;;;;-4.18;66.99;96886.56;5025247;28;20037;-68
2023/11/25 02:26:43;;;;;;;26.80;10.52;;;;;;;-4.14;68.59;96888.28;5012574;28;20081;-69
2023/11/25 02:29:09;;;;;;;22.50;10.43;;;;;;;-4.10;68.55;96894.25;4996612;28;20041;-68
2023/11/25 02:31:39;;;;;;;26.08;11.60;;;;;;;-4.13;67.36;96904.38;5013615;28;20053;-69
2023/11/25 02:34:09;;;;;;;27.60;12.77;;;;;;;-4.33;68.53;96839.16;5012402;28;20069;-71
2023/11/25 02:36:38;;;;;;;27.60;13.18;;;;;;;-3.74;68.44;96912.09;5013860;28;20393;-69
2023/11/25 02:39:04;;;;;;;23.42;12.93;;;;;;;-3.58;69.00;96907.88;5009315;28;20033;-71
2023/11/25 02:41:30;;;;;;;26.35;10.73;;;;;;;-3.62;68.64;96871.44;5018234;28;20038;-69
2023/11/25 02:43:57;;;;;;;24.15;11.35;;;;;;;-3.34;68.59;96902.81;5024544;28;20037;-69
2023/11/25 02:46:23;;;;;;;19.40;9.95;;;;;;;-3.28;67.11;96929.09;4995004;28;20299;-69
2023/11/25 02:48:52;;;;;;;21.85;10.27;;;;;;;-3.56;67.27;96911.28;4994592;28;20129;-68
2023/11/25 02:51:19;;;;;;;19.45;9.82;;;;;;;-3.49;68.12;96923.16;5020403;28;20512;-69
2023/11/25 02:53:50;;;;;;;25.23;11.85;;;;;;;-3.70;67.85;96880.75;5011081;28;20041;-70
2023/11/25 02:56:16;;;;;;;22.60;11.68;;;;;;;-3.31;67.56;96937.59;5012651;28;20037;-70
2023/11/25 02:58:43;;;;;;;22.38;9.77;;;;;;;-3.38;68.65;96934.16;5027414;28;20544;-70
2023/11/25 03:01:13;;;;;;;23.42;8.95;;;;;;;-3.28;68.74;96922.31;5007517;28;20396;-70
2023/11/25 03:03:47;;;;;;;21.10;9.30;;;;;;;-3.21;67.96;96921.47;5011903;28;20137;-69
2023/11/25 03:06:22;;;;;;;19.95;8.35;;;;;;;-3.29;68.49;96892.63;5035330;28;20450;-70
2023/11/25 03:08:48;;;;;;;21.20;8.68;;;;;;;-3.90;68.37;96799.44;5053004;28;20133;-71
2023/11/25 03:15:00;;;;;;;16.90;8.07;;;;;;;-2.84;68.15;96942.63;5031176;28;20060;-70
2023/11/25 03:17:28;;;;;;;20.48;9.10;;;;;;;-2.87;68.14;96931.59;5033167;28;20533;-69
2023/11/25 03:19:54;;;;;;;17.23;7.85;;;;;;;-2.97;67.61;96921.44;5017297;28;20041;-71
2023/11/25 03:22:22;;;;;;;20.70;8.70;;;;;;;-2.95;67.96;96917.19;5031013;28;20398;-69
2023/11/25 03:24:57;;;;;;;16.42;7.85;;;;;;;-2.86;67.81;96932.47;5037526;28;20040;-69
2023/11/25 03:27:25;;;;;;;17.17;8.25;;;;;;;-2.67;67.84;96957.91;5053316;28;20064;-69
2023/11/25 03:30:00;;;;;;;18.08;8.65;;;;;;;-2.59;67.90;96956.19;5037918;28;20103;-68
2023/11/25 03:32:28;;;;;;;16.73;8.00;;;;;;;-2.61;67.67;96951.09;5039462;28;20041;-70
2023/11/25 03:34:57;;;;;;;17.10;7.90;;;;;;;-2.57;67.99;96959.59;5051979;28;20040;-70
2023/11/25 03:37:26;;;;;;;18.95;8.43;;;;;;;-2.58;68.02;96971.44;5036579;28;20132;-70
2023/11/25 03:39:55;;;;;;;;;;;;;;;-2.60;67.52;96967.22;5042214;28;20043;-68
2023/11/25 03:42:25;;;;;;;17.40;8.48;;;;;;;-2.65;67.74;96979.09;5037668;28;19917;-69
2023/11/25 03:44:51;;;;;;;19.30;8.15;;;;;;;-2.64;67.35;96983.34;5021113;28;20746;-68
2023/11/25 03:47:17;;;;;;;19.00;7.90;;;;;;;-2.70;67.67;96970.63;5038221;28;20068;-69
2023/11/25 03:49:44;;;;;;;15.18;7.47;;;;;;;-2.74;67.35;96965.53;5048676;28;20108;-69
2023/11/25 03:52:11;;;;;;;15.82;7.43;;;;;;;-2.56;67.49;96989.28;5036755;28;20098;-70
2023/11/25 03:58:23;;;;;;;14.68;7.60;;;;;;;-2.69;67.38;96992.69;5052290;28;20040;-70
2023/11/25 04:00:49;;;;;;;15.98;7.35;;;;;;;-2.61;67.36;97003.72;5055578;28;20037;-69
2023/11/25 04:08:05;;;;;;;16.58;7.55;;;;;;;-2.61;66.83;97006.28;5032444;28;20654;-70
2023/11/25 04:10:52;;;;;;;15.85;7.80;;;;;;;-2.77;67.08;97002.88;5037929;28;20167;-69
2023/11/25 04:18:01;;;;;;;16.45;7.53;;;;;;;-2.85;67.37;97022.38;5054075;28;20029;-70
2023/11/25 04:25:22;;;;;;;16.13;7.13;;;;;;;-2.85;66.60;97027.47;5050299;28;20040;-69
2023/11/25 04:32:29;;;;;;;16.73;7.93;;;;;;;-2.92;66.65;97060.59;5052562;28;20041;-69
2023/11/25 04:39:33;;;;;;;15.30;7.80;;;;;;;-2.88;67.13;97071.59;5052942;28;20036;-72
2023/11/25 04:46:36;;;;;;;16.15;8.18;;;;;;;-2.78;66.87;97070.78;5035704;28;20037;-71
2023/11/25 04:49:07;;;;;;;19.35;8.73;;;;;;;-2.78;66.16;97070.78;5052106;28;20080;-69
2023/11/25 04:57:18;;;;;;;19.70;9.07;;;;;;;-2.69;66.37;97085.22;5054601;28;20045;-70
2023/11/25 05:37:50;;;;;;;22.23;9.50;;;;;;;-3.06;66.26;97146.22;5036618;28;20075;-72
2023/11/25 05:40:23;;;;;;;17.38;8.63;;;;;;;-3.21;66.43;97131.78;5017320;28;20580;-68
2023/11/25 05:42:57;;;;;;;20.25;9.23;;;;;;;-2.99;66.18;97163.22;5036434;28;20040;-70
2023/11/25 05:45:30;;;;;;;18.25;8.18;;;;;;;-3.13;65.91;97147.91;5054289;28;20044;-70
2023/11/25 05:48:02;;;;;;;17.88;8.43;;;;;;;-2.97;66.47;97168.28;5036239;28;20036;-71
2023/11/25 05:50:28;;;;;;;23.00;11.15;;;;;;;-3.08;65.91;97161.50;5045274;28;20032;-70
2023/11/25 05:53:00;;;;;;;20.15;9.27;;;;;;;-2.96;65.83;97187.81;5052395;28;20044;-71
2023/11/25 05:55:30;;;;;;;20.83;9.43;;;;;;;-2.95;66.21;97189.50;5018574;28;20041;-70
2023/11/25 05:57:59;;;;;;;19.67;9.88;;;;;;;-2.93;66.69;97182.72;5050947;28;20032;-71
2023/11/25 06:00:25;;;;;;;20.65;9.60;;;;;;;-3.34;65.98;97116.44;5047133;28;20040;-68
2023/11/25 06:02:54;;;;;;;18.83;9.93;;;;;;;-2.99;65.29;97186.09;5041526;28;20059;-70
2023/11/25 06:05:20;;;;;;;20.88;10.10;;;;;;;-3.08;65.61;97192.03;5049000;28;20047;-67
2023/11/25 06:07:46;;;;;;;18.02;9.73;;;;;;;-3.03;65.90;97179.31;5048312;28;20043;-66
2023/11/25 06:10:32;;;;;;;20.63;10.48;;;;;;;-2.74;65.96;97221.81;5031477;28;20804;-67
2023/11/25 06:12:58;;;;;;;20.52;10.75;;;;;;;-2.83;66.35;97193.78;5017881;28;20117;-66
2023/11/25 06:15:27;;;;;;;20.20;10.70;;;;;;;-2.60;66.00;97224.41;5041589;28;20086;-68
2023/11/25 06:17:53;;;;;;;20.00;9.55;;;;;;;-3.08;65.22;97170.78;5049133;28;20037;-66
2023/11/25 06:20:21;;;;;;;20.33;10.82;;;;;;;-2.83;65.93;97226.88;5035607;28;20553;-67
2023/11/25 06:22:52;;;;;;;20.63;10.67;;;;;;;-2.96;65.66;97208.16;5017397;28;21200;-68
2023/11/25 06:25:18;;;;;;;22.85;11.35;;;;;;;-2.75;66.04;97238.78;5017118;28;20033;-67
2023/11/25 06:27:45;;;;;;;20.75;10.98;;;;;;;-2.92;66.60;97200.56;5046832;28;20041;-66
2023/11/25 06:30:13;;;;;;;22.33;11.23;;;;;;;-2.79;65.48;97229.47;5046460;28;20041;-70
2023/11/25 06:32:39;;;;;;;21.85;10.57;;;;;;;-2.58;66.02;97256.66;5034671;28;20144;-69
2023/11/25 06:35:08;;;;;;;24.55;12.07;;;;;;;-2.60;65.90;97255.81;5019450;28;20044;-69
2023/11/25 06:37:39;;;;;;;22.17;11.33;;;;;;;-2.48;65.23;97274.53;5052768;28;20407;-70
2023/11/25 06:40:06;;;;;;;23.70;12.45;;;;;;;-2.51;66.10;97267.72;5051701;28;20103;-67
2023/11/25 06:42:33;;;;;;;24.40;12.27;;;;;;;-2.50;65.13;97279.59;5045179;28;20087;-66
2023/11/25 06:45:03;;;;;;;22.50;11.95;;;;;;;-2.47;65.88;97289.81;5035783;28;20041;-66
2023/11/25 06:47:33;;;;;;;26.23;12.27;;;;;;;-2.50;65.63;97279.59;5037436;28;20332;-69
2023/11/25 06:50:02;;;;;;;24.92;12.75;;;;;;;-2.36;66.29;97311.94;5037236;28;20041;-69
2023/11/25 06:52:29;;;;;;;24.13;12.30;;;;;;;-2.35;66.25;97313.63;5027132;28;20444;-68
2023/11/25 06:54:55;;;;;;;26.75;12.38;;;;;;;-2.34;65.70;97310.22;5033932;28;20033;-68
2023/11/25 06:57:22;;;;;;;21.70;11.25;;;;;;;-2.35;65.52;97313.63;5030469;28;20456;-68
2023/11/25 06:59:49;;;;;;;21.25;11.98;;;;;;;-2.40;65.98;97307.66;5024670;28;20132;-66
2023/11/25 07:02:16;;;;;;;30.58;13.23;;;;;;;-2.37;66.18;97305.97;5048797;28;20029;-66
2023/11/25 07:04:45;;;;;;;22.20;11.93;;;;;;;-2.42;65.77;97293.22;5030920;28;20041;-67
2023/11/25 07:07:13;;;;;;;25.35;12.07;;;;;;;-2.27;65.02;97311.94;5048996;28;20751;-67
2023/11/25 07:09:42;;;;;;;22.85;10.75;;;;;;;-3.27;66.24;97152.94;5050011;28;20142;-67
2023/11/25 07:12:10;;;;;;;32.35;12.43;;;;;;;-2.03;65.98;97325.56;5014575;28;20124;-68
2023/11/25 07:14:37;;;;;;;33.13;11.98;;;;;;;-1.89;66.15;97338.34;5020316;28;20406;-68
2023/11/25 07:17:03;;;;;;;23.70;9.75;;;;;;;-2.00;64.71;97335.78;5038223;28;20045;-67
2023/11/25 07:19:28;;;;;;;23.00;9.75;;;;;;;-2.03;65.42;97333.22;5036062;28;20148;-65
2023/11/25 07:21:54;;;;;;;23.77;10.02;;;;;;;-1.74;65.17;97370.69;5037165;28;20148;-66
2023/11/25 07:24:27;;;;;;;22.75;10.27;;;;;;;-1.58;65.28;97376.66;5036905;28;20043;-71
2023/11/25 07:26:54;;;;;;;24.33;11.02;;;;;;;-1.44;65.91;97379.22;5019435;28;20037;-69
2023/11/25 07:29:20;;;;;;;19.90;9.88;;;;;;;-1.41;65.35;97386.84;5036472;28;20048;-67
2023/11/25 07:31:47;;;;;;;21.35;9.85;;;;;;;-1.48;65.06;97352.00;5023000;28;20056;-68
2023/11/25 07:34:13;;;;;;;19.80;9.82;;;;;;;-1.27;64.66;97390.28;5021125;28;20132;-68
2023/11/25 07:36:42;;;;;;;21.70;10.40;;;;;;;-1.23;65.05;97397.09;5037344;28;20040;-67
2023/11/25 07:39:08;;;;;;;19.30;9.13;;;;;;;-1.31;65.15;97378.34;5018805;28;20044;-71
2023/11/25 07:41:40;;;;;;;25.95;10.65;;;;;;;-1.17;65.60;97375.81;5036501;28;20467;-68
2023/11/25 07:44:06;;;;;;;20.77;9.40;;;;;;;-0.96;64.72;97408.09;5022775;28;20052;-67
2023/11/25 07:46:32;;;;;;;18.23;9.43;;;;;;;-1.08;64.67;97393.63;5019952;28;20041;-67
2023/11/25 07:48:58;;;;;;;20.02;9.23;;;;;;;-0.93;65.01;97431.09;5018339;28;20143;-68
2023/11/25 07:51:25;;;;;;;21.15;9.75;;;;;;;-0.97;65.02;97403.84;5022932;28;20037;-66
2023/11/25 07:53:51;;;;;;;23.40;9.52;;;;;;;-0.89;64.70;97429.41;5038870;28;20068;-67
2023/11/25 07:56:17;;;;;;;19.35;9.52;;;;;;;-0.77;64.55;97442.16;5022878;28;20083;-68
2023/11/25 07:58:43;;;;;;;24.88;9.88;;;;;;;-0.76;63.90;97435.31;5022853;28;20152;-68
2023/11/25 08:01:09;;;;;;;21.23;10.65;;;;;;;-0.76;64.90;97437.88;5020470;28;20040;-71
2023/11/25 08:03:36;;;;;;;18.63;9.90;;;;;;;-1.14;64.11;97375.81;5023172;28;20120;-71
2023/11/25 08:06:05;;;;;;;23.60;10.68;;;;;;;-0.78;64.81;97409.78;5024089;28;20578;-71
2023/11/25 08:08:32;;;;;;;19.45;9.25;;;;;;;-0.84;64.00;97396.19;5018966;28;20083;-69
2023/11/25 08:10:58;;;;;;;20.63;9.48;;;;;;;-0.97;64.20;97377.47;5033811;28;20098;-69
2023/11/25 08:13:25;;;;;;;17.25;8.95;;;;;;;-0.78;63.94;97412.34;5020833;28;20075;-68
2023/11/25 08:15:51;;;;;;;19.80;10.15;;;;;;;-0.49;63.80;97461.69;5016957;28;20084;-69
2023/11/25 08:18:18;;;;;;;25.08;11.00;;;;;;;-0.32;64.24;97470.16;5004234;28;20083;-71
2023/11/25 08:20:47;;;;;;;21.80;9.65;;;;;;;-0.37;63.49;97460.78;4987756;28;20468;-71
2023/11/25 08:23:12;;;;;;;21.40;10.00;;;;;;;-0.37;63.29;97466.78;5000081;28;20045;-69
2023/11/25 08:25:39;;;;;;;23.98;10.10;;;;;;;-0.38;63.31;97476.97;5000947;28;20038;-69
2023/11/25 08:28:05;;;;;;;24.85;10.48;;;;;;;-0.27;63.27;97503.38;5000808;28;20053;-71
2023/11/25 08:30:31;;;;;;;23.80;10.63;;;;;;;-0.47;62.98;97482.97;5001774;28;20068;-70
2023/11/25 08:33:04;;;;;;;23.95;10.57;;;;;;;-0.32;63.10;97520.44;5003259;28;20041;-70
2023/11/25 08:35:30;;;;;;;24.65;9.88;;;;;;;-0.81;63.41;97460.03;5020251;28;20038;-71
2023/11/25 08:37:57;;;;;;;23.90;9.93;;;;;;;-0.41;63.18;97525.53;5016933;28;20037;-68
2023/11/25 08:40:23;;;;;;;17.70;9.48;;;;;;;-0.31;63.30;97558.75;5001913;28;20034;-77
2023/11/25 08:42:52;;;;;;;20.42;9.02;;;;;;;-0.78;63.27;97488.13;5008009;28;20033;-73
2023/11/25 08:45:19;;;;;;;19.83;9.85;;;;;;;-0.61;62.21;97550.28;4993477;28;20038;-71
2023/11/25 08:47:45;;;;;;;21.58;10.95;;;;;;;-0.65;63.22;97546.00;5003462;28;20046;-74
2023/11/25 08:50:15;;;;;;;20.83;10.75;;;;;;;-0.36;62.46;97591.16;5004944;28;20466;-74
2023/11/25 08:52:44;;;;;;;23.27;10.57;;;;;;;-0.44;62.61;97579.25;5004620;28;20512;-74
2023/11/25 08:55:10;;;;;;;24.55;10.52;;;;;;;-0.52;62.82;97576.66;4992491;28;20052;-76
2023/11/25 08:57:37;;;;;;;23.55;10.52;;;;;;;-0.40;62.64;97601.34;5026359;28;20037;-75
2023/11/25 09:00:14;;;;;;;24.17;11.18;;;;;;;-0.39;62.56;97593.72;5009669;28;20045;-76
2023/11/25 09:02:47;;;;;;;20.45;10.98;;;;;;;-0.35;62.61;97589.44;5008691;28;20042;-79
2023/11/25 09:05:14;;;;;;;22.52;11.05;;;;;;;-0.51;62.54;97568.16;5003270;28;20041;-80
2023/11/25 09:07:43;;;;;;;22.90;11.32;;;;;;;-0.51;62.56;97570.69;4993733;28;20060;-73
2023/11/25 09:10:10;;;;;;;23.45;11.35;;;;;;;-0.46;62.58;97581.78;4993155;28;20050;-72
2023/11/25 09:12:37;;;;;;;26.42;11.13;;;;;;;-0.37;62.82;97575.81;4991920;28;20136;-70
2023/11/25 09:15:06;;;;;;;21.45;10.82;;;;;;;-0.26;62.34;97619.25;5023839;28;20133;-69
2023/11/25 09:17:38;;;;;;;24.35;11.07;;;;;;;-0.63;62.78;97558.78;5008542;28;20048;-75
2023/11/25 09:20:07;;;;;;;;;;;;;;;-0.13;62.72;97627.78;5007055;28;20037;-73
2023/11/25 09:22:33;;;;;;;22.83;10.48;;;;;;;-0.18;62.59;97627.78;5009521;28;19918;-74
2023/11/25 09:24:59;;;;;;;20.55;10.00;;;;;;;-0.11;61.73;97657.59;5005686;28;20042;-74
2023/11/25 09:27:25;;;;;;;25.33;11.20;;;;;;;-0.18;61.87;97671.25;5009103;28;20037;-72
2023/11/25 09:29:51;;;;;;;24.88;10.85;;;;;;;-0.39;62.21;97639.72;5023814;28;20038;-76
2023/11/25 09:32:18;;;;;;;25.05;11.10;;;;;;;-0.08;62.21;97677.22;5007862;28;20084;-72
2023/11/25 09:34:44;;;;;;;24.70;11.23;;;;;;;-0.37;62.07;97652.47;4990792;28;20129;-73
2023/11/25 09:37:11;;;;;;;25.98;11.77;;;;;;;-0.16;62.27;97669.53;5019007;28;20563;-75
2023/11/25 09:39:40;;;;;;;27.60;12.48;;;;;;;-0.08;61.90;97678.03;5005975;28;20053;-74
2023/11/25 09:42:08;;;;;;;25.58;11.63;;;;;;;-0.10;61.88;97661.84;5019110;28;20121;-73
2023/11/25 09:44:35;;;;;;;27.65;12.27;;;;;;;-0.15;62.13;97635.47;5014215;28;20092;-75
2023/11/25 09:47:01;;;;;;;28.02;12.30;;;;;;;0.07;62.42;97663.56;5002821;28;20038;-72
2023/11/25 09:49:27;;;;;;;24.17;11.10;;;;;;;0.16;62.42;97681.44;5005342;28;20061;-74
2023/11/25 09:52:00;;;;;;;26.17;12.43;;;;;;;-0.09;61.56;97676.34;5005261;28;20423;-74
2023/11/25 09:54:26;;;;;;;27.38;12.57;;;;;;;-0.09;62.18;97696.78;5005085;28;20131;-73
2023/11/25 09:56:53;;;;;;;24.70;12.27;;;;;;;-0.12;62.44;97701.06;5019780;28;22354;-76
2023/11/25 09:59:19;;;;;;;26.65;12.55;;;;;;;0.09;62.09;97739.44;5004195;28;20034;-75
2023/11/25 10:01:46;;;;;;;26.30;12.35;;;;;;;0.13;61.64;97745.41;4997268;28;20132;-73
2023/11/25 10:04:15;;;;;;;25.52;12.93;;;;;;;0.25;62.43;97744.53;5008113;28;20539;-76
2023/11/25 10:06:42;;;;;;;25.33;13.15;;;;;;;0.25;61.68;97744.53;4990622;28;20045;-72
2023/11/25 10:09:11;;;;;;;25.70;11.57;;;;;;;0.01;61.50;97724.94;5018730;28;20637;-73
2023/11/25 10:11:47;;;;;;;29.95;12.85;;;;;;;0.19;61.59;97754.81;5019335;28;20499;-74
2023/11/25 10:14:14;;;;;;;28.00;12.85;;;;;;;0.18;61.92;97753.09;5004051;28;20416;-74
2023/11/25 10:16:46;;;;;;;23.67;12.13;;;;;;;0.33;61.78;97765.88;5003593;28;20084;-74
2023/11/25 10:19:25;;;;;;;27.92;12.85;;;;;;;0.35;61.40;97768.41;5001036;28;20080;-75
2023/11/25 10:21:52;;;;;;;27.55;12.48;;;;;;;0.36;61.53;97778.66;5026077;28;20049;-76
2023/11/25 10:24:21;;;;;;;27.50;13.85;;;;;;;0.32;61.72;97771.00;5000042;28;20053;-79
2023/11/25 10:26:49;;;;;;;29.38;13.63;;;;;;;-0.09;62.00;97701.91;4996606;28;20523;-77
2023/11/25 10:29:19;;;;;;;30.42;13.75;;;;;;;0.33;61.10;97777.81;5007597;28;20044;-75
2023/11/25 10:31:51;;;;;;;29.02;13.55;;;;;;;0.29;61.34;97772.72;5009454;28;20042;-73
2023/11/25 10:34:21;;;;;;;28.70;13.45;;;;;;;-0.12;60.27;97716.41;5007042;28;20042;-75
2023/11/25 10:36:49;;;;;;;36.92;15.10;;;;;;;0.01;61.10;97728.34;5004888;28;20038;-77
2023/11/25 10:39:17;;;;;;;27.48;13.02;;;;;;;0.40;61.12;97803.41;5006172;28;20088;-74
2023/11/25 10:41:50;;;;;;;32.47;13.10;;;;;;;0.30;61.45;97768.44;4991127;28;20045;-76
2023/11/25 10:44:17;;;;;;;25.80;12.15;;;;;;;0.54;60.89;97810.22;5003953;28;20061;-75
2023/11/25 10:46:46;;;;;;;25.73;13.18;;;;;;;0.49;61.19;97791.44;5002529;28;20160;-77
2023/11/25 10:49:14;;;;;;;27.27;13.95;;;;;;;0.50;60.88;97788.91;5007762;28;20049;-76
2023/11/25 10:51:43;;;;;;;30.00;13.45;;;;;;;0.29;61.04;97759.91;5005572;28;20052;-77
2023/11/25 10:54:11;;;;;;;37.10;16.25;;;;;;;0.57;59.95;97846.91;5004675;28;20159;-73
2023/11/25 10:56:42;;;;;;;29.17;14.68;;;;;;;-0.23;60.22;97760.72;5004352;28;20167;-79
2023/11/25 10:59:12;;;;;;;36.28;15.75;;;;;;;0.03;60.10;97828.09;5008721;28;20555;-73
2023/11/25 11:01:43;;;;;;;29.35;14.35;;;;;;;-0.36;60.37;97802.44;5005547;28;20034;-76
2023/11/25 11:04:30;;;;;;;29.67;15.57;;;;;;;-0.18;60.27;97842.53;5008386;28;20040;-75
2023/11/25 11:07:03;;;;;;;27.38;13.73;;;;;;;0.11;60.54;97868.19;5006943;28;20057;-73
2023/11/25 11:09:32;;;;;;;26.95;14.07;;;;;;;0.28;60.22;97859.69;5018127;28;20046;-78
2023/11/25 11:12:05;;;;;;;32.17;14.55;;;;;;;0.44;60.71;97845.19;5023860;28;20037;-75
2023/11/25 11:14:37;;;;;;;27.98;13.77;;;;;;;0.50;60.33;97841.78;5022204;28;20041;-75
2023/11/25 11:17:28;;;;;;;26.95;13.35;;;;;;;0.75;59.87;97860.56;5042858;28;20052;-74
2023/11/25 11:19:58;;;;;;;28.83;13.48;;;;;;;0.26;60.25;97802.53;5027504;28;20080;-77
2023/11/25 11:22:25;;;;;;;29.38;13.27;;;;;;;0.15;59.75;97807.63;5045713;28;20072;-75
2023/11/25 11:25:04;;;;;;;27.25;12.93;;;;;;;0.52;59.57;97891.28;5045246;28;20041;-77
2023/11/25 11:27:46;;;;;;;27.92;13.07;;;;;;;0.28;60.11;97881.03;5024143;28;20086;-75
2023/11/25 11:30:17;;;;;;;29.42;13.40;;;;;;;0.33;59.08;97913.44;5010956;28;20167;-80
2023/11/25 11:32:45;;;;;;;32.20;14.38;;;;;;;-0.14;59.46;97880.06;5040034;28;20042;-81
2023/11/25 11:35:35;;;;;;;32.22;15.45;;;;;;;-0.36;59.95;97897.00;5025956;28;20083;-78
2023/11/25 11:38:01;;;;;;;31.88;14.15;;;;;;;-0.46;60.02;97906.34;5048454;28;20521;-79
2023/11/25 11:40:27;;;;;;;32.05;15.13;;;;;;;-0.97;60.04;97848.13;5030632;28;20033;-78
2023/11/25 11:42:55;;;;;;;30.90;15.02;;;;;;;-0.88;59.95;97872.88;5053084;28;20037;-76
2023/11/25 11:45:27;;;;;;;32.33;13.52;;;;;;;-0.72;59.86;97909.59;5026869;28;20506;-78
2023/11/25 11:47:54;;;;;;;31.00;14.55;;;;;;;-0.44;60.29;97960.03;5041753;28;21084;-77
2023/11/25 11:50:29;;;;;;;35.60;15.45;;;;;;;-0.59;60.20;97958.22;5022799;28;20267;-76
2023/11/25 11:53:01;;;;;;;40.90;19.15;;;;;;;-0.56;60.16;97958.25;5036515;28;20033;-78
2023/11/25 11:55:38;;;;;;;36.20;17.35;;;;;;;-0.72;60.00;97929.19;5031233;28;20128;-78
2023/11/25 11:58:17;;;;;;;37.03;16.85;;;;;;;-0.45;60.76;97964.25;5019877;28;20041;-76
2023/11/25 12:00:55;;;;;;;32.17;16.05;;;;;;;-0.35;60.18;97975.41;5036869;28;20049;-76
2023/11/25 12:03:22;;;;;;;33.63;15.57;;;;;;;-0.37;60.96;97962.63;5017000;28;20041;-75
2023/11/25 12:05:51;;;;;;;40.13;16.50;;;;;;;-0.27;60.43;97993.34;5024969;28;20470;-77
2023/11/25 12:08:17;;;;;;;43.60;19.27;;;;;;;-0.47;60.43;97971.94;5052623;28;20032;-74
2023/11/25 12:10:43;;;;;;;51.00;19.58;;;;;;;-0.63;60.21;97965.88;5016996;28;20060;-76
2023/11/25 12:13:11;;;;;;;40.33;17.50;;;;;;;-0.55;59.93;97990.63;5022289;28;20069;-77
2023/11/25 12:15:38;;;;;;;32.47;15.43;;;;;;;-0.63;60.84;97968.41;4990507;28;20041;-78
2023/11/25 12:18:08;;;;;;;29.05;13.75;;;;;;;-0.67;60.70;97984.56;5001530;28;20095;-72
2023/11/25 12:20:39;;;;;;;30.23;14.10;;;;;;;-0.70;60.52;97982.00;5006405;28;20053;-79
2023/11/25 12:23:07;;;;;;;28.52;13.50;;;;;;;-0.57;60.33;98012.75;5011162;28;20038;-74
2023/11/25 12:25:35;;;;;;;31.40;13.73;;;;;;;-0.63;59.49;98018.66;4993015;28;20058;-76
2023/11/25 12:28:11;;;;;;;25.70;12.80;;;;;;;-0.86;60.31;98001.44;5011384;28;20082;-72
2023/11/25 12:30:38;;;;;;;30.02;13.73;;;;;;;-0.85;60.91;98036.34;5014312;28;20049;-82
2023/11/25 12:33:05;;;;;;;28.52;12.82;;;;;;;-0.85;60.24;98025.31;5014912;28;20565;-82
2023/11/25 12:35:39;;;;;;;33.13;15.40;;;;;;;-0.85;60.70;98032.97;5000488;28;20057;-81
2023/11/25 12:38:05;;;;;;;31.58;14.98;;;;;;;-0.77;60.24;98061.97;5024079;28;20056;-82
2023/11/25 12:40:32;;;;;;;31.65;15.40;;;;;;;-1.28;60.53;97995.97;5048689;28;20052;-81
2023/11/25 12:42:59;;;;;;;29.92;12.90;;;;;;;-1.23;61.28;98035.19;5027998;28;20501;-78
2023/11/25 12:45:35;;;;;;;30.17;13.88;;;;;;;-1.13;60.51;98073.53;5026137;28;20056;-75
2023/11/25 12:48:03;;;;;;;29.63;13.82;;;;;;;-1.23;60.33;98091.34;4995576;28;20033;-79
2023/11/25 12:50:30;;;;;;;30.30;14.43;;;;;;;-1.31;60.37;98092.94;5011227;28;20046;-81
2023/11/25 12:53:08;;;;;;;33.75;15.18;;;;;;;-1.41;60.45;98094.53;5050408;28;20042;-85
2023/11/25 13:10:40;;;;;;;25.17;13.13;;;;;;;-1.95;60.35;98096.38;5007069;28;20140;-76
2023/11/25 13:13:06;;;;;;;30.92;14.50;;;;;;;-2.44;60.52;98043.88;4992502;28;20050;-75
2023/11/25 13:24:13;;;;;;;27.45;11.88;;;;;;;-1.93;61.20;98134.63;5011243;28;19952;-76
2023/11/25 13:31:18;;;;;;;25.25;11.90;;;;;;;-1.99;60.84;98135.41;5008339;28;20035;-76
2023/11/25 13:33:47;;;;;;;28.75;12.52;;;;;;;-2.21;60.40;98116.41;5005620;28;20041;-77
2023/11/25 13:36:13;;;;;;;30.50;13.68;;;;;;;-1.91;61.02;98156.78;4992797;28;20129;-75
2023/11/25 13:43:20;;;;;;;30.27;14.27;;;;;;;-2.31;60.86;98065.28;5007052;28;20431;-78
2023/11/25 13:50:30;;;;;;;31.00;14.82;;;;;;;-1.74;60.66;98154.47;5016002;28;20069;-75
2023/11/25 13:55:12;;;;;;;33.88;13.73;;;;;;;-1.76;60.80;98174.00;4958257;28;20114;-75
2023/11/25 14:16:52;;;;;;;32.25;14.63;;;;;;;-2.04;60.81;98182.91;4965761;28;20086;-71
2023/11/25 14:43:24;;;;;;;29.75;13.15;;;;;;;-2.28;60.77;98217.38;5009088;28;20041;-74
2023/11/25 14:55:50;;;;;;;26.67;13.73;;;;;;;-2.56;60.90;98214.34;5010432;28;20376;-76
2023/11/25 14:58:25;;;;;;;29.30;13.85;;;;;;;-2.31;61.04;98260.63;5013646;28;20503;-77
2023/11/25 15:05:48;;;;;;;32.85;13.18;;;;;;;-2.79;61.46;98212.22;5013364;28;20041;-77
2023/11/25 15:12:55;;;;;;;26.70;13.02;;;;;;;-2.67;60.98;98228.56;5014221;28;20044;-74
2023/11/25 15:15:34;;;;;;;30.73;14.18;;;;;;;-2.25;61.19;98283.69;5018263;28;20054;-74